Time;durP1;ratioP1;P1;durP2;ratioP2;P2;SDS_P1;SDS_P2;PMS_P1;PMS_P2;Temp;Humidity;BMP_temperature;BMP_pressure;BME280_temperature;BME280_humidity;BME280_pressure;Samples;Min_cycle;Max_cycle;Signal;HPM_P1;HPM_P2
2024/02/11 00:02:17;;;;;;;17.93;12.37;;;9.20;99.90;;;10.61;70.94;94849.00;5031796;28;20425;-65
2024/02/11 00:04:45;;;;;;;17.03;12.23;;;9.20;99.90;;;10.70;70.65;94851.31;5031246;28;20048;-65
2024/02/11 00:07:13;;;;;;;18.50;12.90;;;9.20;99.90;;;10.76;70.53;94850.38;5032531;28;20041;-65
2024/02/11 00:09:41;;;;;;;23.47;14.10;;;9.20;99.90;;;10.66;71.04;94855.47;5032683;28;20494;-65
2024/02/11 00:12:09;;;;;;;16.07;12.90;;;9.10;99.90;;;10.72;70.82;94855.38;5039726;28;20050;-65
2024/02/11 00:14:37;;;;;;;18.53;12.00;;;9.20;99.90;;;10.77;70.74;94860.00;5031220;28;20366;-65
2024/02/11 00:17:04;;;;;;;18.17;13.33;;;9.20;99.90;;;10.82;70.72;94868.91;5032134;28;20417;-64
2024/02/11 00:19:32;;;;;;;20.00;13.20;;;9.30;99.90;;;10.79;70.63;94868.56;5032358;28;20389;-64
2024/02/11 00:22:01;;;;;;;18.13;12.53;;;9.30;99.90;;;10.86;70.88;94866.59;5032592;28;20057;-65
2024/02/11 00:24:29;;;;;;;20.83;12.57;;;9.30;99.90;;;10.95;70.54;94864.41;5031176;28;20037;-64
2024/02/11 00:26:57;;;;;;;18.57;12.13;;;9.40;99.90;;;10.97;70.32;94863.16;5032184;28;20052;-65
2024/02/11 00:29:26;;;;;;;18.53;12.37;;;9.50;99.90;;;10.99;70.64;94870.88;5032492;28;20048;-65
2024/02/11 00:31:56;;;;;;;17.87;12.53;;;9.40;99.90;;;10.94;70.69;94873.44;5031239;28;20390;-64
2024/02/11 00:34:24;;;;;;;25.23;13.00;;;9.40;99.90;;;10.97;70.58;94873.78;5032192;28;20508;-64
2024/02/11 00:36:52;;;;;;;19.80;12.73;;;9.40;99.90;;;10.98;70.73;94871.94;5030766;28;20049;-65
2024/02/11 00:39:20;;;;;;;16.03;11.30;;;9.40;99.90;;;10.98;70.62;94859.44;5032150;28;20061;-65
2024/02/11 00:41:47;;;;;;;18.37;12.63;;;9.40;99.90;;;11.01;70.96;94858.97;5031034;28;20042;-64
2024/02/11 00:44:15;;;;;;;19.87;12.00;;;9.40;99.90;;;11.04;70.53;94868.34;5030785;28;20053;-64
2024/02/11 00:46:43;;;;;;;22.37;13.40;;;9.40;99.90;;;11.08;70.43;94871.34;5029732;28;20049;-64
2024/02/11 00:49:11;;;;;;;21.73;13.83;;;9.50;99.90;;;11.11;70.32;94873.53;5031716;28;20408;-65
2024/02/11 00:51:38;;;;;;;22.27;12.97;;;9.50;99.90;;;11.13;70.56;94877.59;5032038;28;20045;-65
2024/02/11 00:54:06;;;;;;;21.87;13.30;;;9.50;99.90;;;11.12;70.39;94877.84;5022342;28;20049;-64
2024/02/11 00:56:33;;;;;;;20.97;13.57;;;9.50;99.90;;;11.08;70.40;94879.34;5030433;28;20038;-64
2024/02/11 00:59:01;;;;;;;20.53;14.03;;;9.50;99.90;;;11.09;70.78;94886.28;5032018;28;20049;-64
2024/02/11 01:01:28;;;;;;;23.80;14.63;;;9.40;99.90;;;11.11;70.21;94886.84;5031749;28;20042;-65
2024/02/11 01:03:56;;;;;;;20.60;14.50;;;9.50;99.90;;;11.18;70.45;94887.53;5031690;28;20066;-64
2024/02/11 01:06:25;;;;;;;22.70;13.53;;;9.50;99.90;;;11.20;70.45;94890.78;5031091;28;20049;-65
2024/02/11 01:08:53;;;;;;;20.50;13.67;;;9.50;99.90;;;11.16;70.40;94890.44;5031721;28;20050;-65
2024/02/11 01:11:21;;;;;;;23.03;13.93;;;9.50;99.90;;;11.15;70.54;94891.50;5030725;28;20052;-65
2024/02/11 01:13:49;;;;;;;22.50;15.43;;;9.50;99.90;;;11.22;70.43;94900.19;5031532;28;20060;-65
2024/02/11 01:16:17;;;;;;;21.07;13.43;;;9.60;99.90;;;11.27;70.58;94904.81;5030963;28;20049;-64
2024/02/11 01:18:45;;;;;;;25.63;14.33;;;9.60;99.90;;;11.32;70.41;94902.25;5030229;28;20057;-64
2024/02/11 01:21:14;;;;;;;19.83;14.30;;;9.70;99.90;;;11.36;70.18;94915.91;5031384;28;20049;-64
2024/02/11 01:23:42;;;;;;;21.57;14.57;;;9.70;99.90;;;11.37;70.33;94912.22;5031398;28;20052;-65
2024/02/11 01:26:09;;;;;;;24.33;14.53;;;9.70;99.90;;;11.40;70.35;94907.22;5031101;28;20049;-64
2024/02/11 01:28:39;;;;;;;19.70;13.90;;;9.80;99.90;;;11.43;70.06;94913.94;5029874;28;20536;-65
2024/02/11 01:31:07;;;;;;;24.27;13.40;;;9.80;99.90;;;11.46;70.25;94917.97;5031328;28;20045;-64
2024/02/11 01:33:35;;;;;;;20.43;14.60;;;9.80;99.90;;;11.48;69.94;94919.38;5021953;28;20301;-65
2024/02/11 01:36:03;;;;;;;20.03;13.80;;;9.90;99.90;;;11.52;69.83;94925.06;5030156;28;20045;-65
2024/02/11 01:38:31;;;;;;;21.33;15.10;;;9.80;99.90;;;11.54;70.22;94929.09;5029999;28;20037;-65
2024/02/11 01:40:58;;;;;;;19.87;12.53;;;9.80;99.90;;;11.57;69.99;94920.66;5031338;28;20052;-65
2024/02/11 01:43:26;;;;;;;23.50;14.60;;;9.90;99.90;;;11.60;69.64;94917.50;5029897;28;20519;-65
2024/02/11 01:45:54;;;;;;;23.23;14.67;;;9.90;99.90;;;11.60;69.69;94925.50;5030556;28;20049;-65
2024/02/11 01:48:22;;;;;;;22.17;13.50;;;9.90;99.90;;;11.64;69.67;94920.53;5030065;28;20046;-65
2024/02/11 01:50:52;;;;;;;20.57;12.73;;;9.90;99.90;;;11.66;69.58;94928.28;5029786;28;20263;-64
2024/02/11 01:53:21;;;;;;;21.30;13.20;;;10.00;99.90;;;11.68;69.37;94924.34;5029746;28;20049;-65
2024/02/11 01:55:49;;;;;;;21.20;13.20;;;10.00;99.90;;;11.69;69.48;94931.31;5013147;28;20045;-64
2024/02/11 01:58:18;;;;;;;20.33;12.77;;;10.00;99.90;;;11.70;69.68;94926.78;5013413;28;20046;-65
2024/02/11 02:00:48;;;;;;;22.13;13.57;;;10.00;99.90;;;11.72;69.34;94928.16;5029868;28;20429;-65
2024/02/11 02:03:18;;;;;;;18.67;12.37;;;10.00;99.90;;;11.74;69.35;94933.25;5030992;28;20421;-65
2024/02/11 02:05:46;;;;;;;20.97;13.37;;;10.00;99.90;;;11.74;69.37;94928.72;5012696;28;20536;-65
2024/02/11 02:08:14;;;;;;;21.90;13.90;;;10.00;99.90;;;11.76;69.65;94925.81;5013191;28;20512;-65
2024/02/11 02:10:41;;;;;;;20.63;13.20;;;10.10;99.90;;;11.77;69.34;94932.78;5029666;28;20052;-65
2024/02/11 02:13:10;;;;;;;22.23;13.60;;;10.00;99.90;;;11.77;69.49;94933.59;5030921;28;20034;-66
2024/02/11 02:15:37;;;;;;;18.33;12.70;;;10.00;99.90;;;11.78;69.22;94937.06;5013409;28;20053;-66
2024/02/11 02:18:08;;;;;;;22.67;13.77;;;10.00;99.90;;;11.77;69.46;94938.13;5030718;28;20049;-65
2024/02/11 02:20:36;;;;;;;21.50;13.67;;;10.00;99.90;;;11.75;69.22;94941.00;5030779;28;20185;-66
2024/02/11 02:23:04;;;;;;;21.73;13.37;;;9.90;99.90;;;11.73;69.25;94936.94;5033907;28;20049;-66
2024/02/11 02:25:33;;;;;;;19.87;12.03;;;10.00;99.90;;;11.69;69.38;94939.28;5034009;28;20930;-66
2024/02/11 02:28:05;;;;;;;20.77;13.07;;;9.90;99.90;;;11.71;69.69;94947.03;5034576;28;20048;-66
2024/02/11 02:30:35;;;;;;;19.60;13.97;;;10.00;99.90;;;11.75;69.64;94953.53;5033519;28;20088;-66
2024/02/11 02:33:03;;;;;;;16.87;10.97;;;10.00;99.90;;;11.74;69.42;94939.38;5035041;28;20041;-66
2024/02/11 02:35:33;;;;;;;17.27;11.13;;;10.10;99.90;;;11.72;69.42;94949.47;5033339;28;20054;-66
2024/02/11 02:38:01;;;;;;;17.80;11.77;;;10.00;99.90;;;11.64;69.37;94949.84;5034451;28;20064;-66
2024/02/11 02:40:30;;;;;;;17.57;11.80;;;10.00;99.90;;;11.61;69.43;94960.94;5034589;28;20057;-66
2024/02/11 02:42:59;;;;;;;21.47;12.03;;;9.90;99.90;;;11.46;70.16;94963.28;5034446;28;20056;-66
2024/02/11 02:45:26;;;;;;;13.77;8.30;;;9.80;99.90;;;11.20;70.39;94966.16;5033892;28;20042;-66
2024/02/11 02:47:54;;;;;;;4.70;2.53;;;9.60;99.90;;;10.68;70.45;94973.91;5033104;28;20041;-65
2024/02/11 02:50:22;;;;;;;2.20;1.50;;;9.30;99.90;;;10.43;70.70;94974.91;5033089;28;20041;-65
2024/02/11 02:52:50;;;;;;;1.97;1.10;;;9.10;99.90;;;10.41;70.38;94970.81;5033243;28;20061;-65
2024/02/11 02:55:19;;;;;;;0.50;0.50;;;9.00;99.90;;;10.08;70.58;94980.03;5033723;28;20057;-64
2024/02/11 02:57:47;;;;;;;0.60;0.60;;;8.80;99.90;;;10.11;69.91;94973.44;5034138;28;20053;-65
2024/02/11 03:00:18;;;;;;;0.70;0.60;;;8.70;99.90;;;10.03;69.96;94982.53;5033152;28;20520;-66
2024/02/11 03:02:46;;;;;;;0.40;0.40;;;8.60;99.90;;;9.78;69.95;94986.06;5025387;28;20277;-65
2024/02/11 03:05:14;;;;;;;1.00;0.60;;;8.50;99.90;;;9.70;69.86;94996.19;5032273;28;20049;-65
2024/02/11 03:07:42;;;;;;;0.30;0.30;;;8.30;99.90;;;9.62;69.88;94986.66;5025960;28;20037;-65
2024/02/11 03:10:16;;;;;;;0.40;0.30;;;8.30;99.90;;;9.51;69.69;94990.84;5034490;28;20041;-65
2024/02/11 03:12:43;;;;;;;;;;;8.20;99.90;;;9.31;69.47;95003.50;5025601;28;20041;-65
2024/02/11 03:15:11;;;;;;;0.73;0.30;;;8.00;99.90;;;9.30;69.66;95007.19;5033417;28;19925;-67
2024/02/11 03:17:41;;;;;;;0.30;0.30;;;8.00;99.90;;;8.93;69.92;95015.81;5033436;28;20042;-66
2024/02/11 03:20:14;;;;;;;0.83;0.33;;;7.80;99.90;;;8.85;70.11;95024.06;5033827;28;20485;-66
2024/02/11 03:22:45;;;;;;;0.30;0.30;;;7.70;99.90;;;8.75;70.51;95027.19;5033706;28;20037;-66
2024/02/11 03:25:14;;;;;;;0.50;0.40;;;7.70;99.90;;;8.60;70.77;95038.06;5033458;28;20042;-67
2024/02/11 03:27:42;;;;;;;0.20;0.20;;;7.60;99.90;;;8.40;70.99;95037.34;5033342;28;20041;-65
2024/02/11 03:30:11;;;;;;;0.40;0.40;;;7.40;99.90;;;8.43;71.00;95036.94;5033659;28;20041;-65
2024/02/11 03:32:40;;;;;;;0.30;0.30;;;7.40;99.90;;;8.35;70.98;95048.56;5032295;28;20046;-66
2024/02/11 03:35:08;;;;;;;0.40;0.40;;;7.30;99.90;;;8.38;71.01;95048.16;5031707;28;20049;-66
2024/02/11 03:37:38;;;;;;;0.50;0.50;;;7.40;99.90;;;8.37;70.94;95057.09;5032072;28;20052;-65
2024/02/11 03:40:11;;;;;;;0.27;0.27;;;7.40;99.90;;;8.25;70.64;95059.59;5032393;28;20516;-66
2024/02/11 03:42:39;;;;;;;0.40;0.40;;;7.20;99.90;;;8.29;70.94;95052.06;5031957;28;20053;-66
2024/02/11 03:45:11;;;;;;;0.37;0.37;;;7.20;99.90;;;8.29;70.76;95054.69;5031660;28;20045;-65
2024/02/11 03:47:39;;;;;;;0.33;0.30;;;7.20;99.90;;;8.42;70.75;95077.75;5032055;28;20045;-65
2024/02/11 03:50:15;;;;;;;0.50;0.50;;;7.20;99.90;;;8.50;70.08;95077.50;5033321;28;20516;-65
2024/02/11 03:52:44;;;;;;;0.60;0.50;;;7.30;99.90;;;8.60;70.16;95080.50;5016551;28;20044;-65
2024/02/11 03:55:11;;;;;;;0.40;0.40;;;7.40;99.90;;;8.44;69.94;95081.00;5015442;28;20053;-66
2024/02/11 03:57:40;;;;;;;1.97;0.70;;;7.30;99.90;;;8.46;69.83;95084.25;5032908;28;20529;-66
2024/02/11 04:00:23;;;;;;;0.93;0.70;;;7.30;99.90;;;8.43;69.35;95096.09;5032018;28;20045;-66
2024/02/11 04:02:54;;;;;;;1.47;0.50;;;7.20;99.90;;;8.43;69.52;95097.91;5024473;28;20042;-65
2024/02/11 04:05:24;;;;;;;0.67;0.63;;;7.20;99.90;;;8.46;69.82;95105.47;5031150;28;20041;-65
2024/02/11 04:07:54;;;;;;;0.90;0.60;;;7.20;99.90;;;8.48;69.75;95106.88;5032845;28;20536;-65
2024/02/11 04:10:24;;;;;;;1.33;0.80;;;7.20;99.90;;;8.25;69.58;95104.66;5031554;28;20041;-65
2024/02/11 04:12:52;;;;;;;0.80;0.77;;;7.10;99.90;;;8.32;69.69;95109.13;5023872;28;20049;-65
2024/02/11 04:15:24;;;;;;;1.10;0.80;;;7.10;99.90;;;8.17;69.82;95102.25;5031512;28;20056;-65
2024/02/11 04:17:56;;;;;;;1.10;0.97;;;7.00;99.90;;;8.32;69.76;95117.09;5023990;28;20045;-65
2024/02/11 04:20:26;;;;;;;1.33;1.00;;;7.00;99.90;;;8.32;69.34;95117.09;5014978;28;20050;-66
2024/02/11 04:23:00;;;;;;;1.77;1.03;;;7.10;99.90;;;8.21;69.04;95113.25;5032743;28;20041;-65
2024/02/11 04:25:34;;;;;;;3.25;1.33;;;7.00;99.90;;;8.19;69.42;95115.31;5031977;28;20045;-65
2024/02/11 04:28:07;;;;;;;1.42;1.20;;;6.90;99.90;;;8.25;69.29;95112.63;5015486;28;20041;-65
2024/02/11 04:30:42;;;;;;;1.97;1.17;;;7.00;99.90;;;8.24;68.88;95116.31;5031352;28;20048;-65
2024/02/11 04:33:14;;;;;;;3.90;1.00;;;6.90;99.90;;;8.32;68.87;95114.44;5031313;28;20048;-65
2024/02/11 04:35:43;;;;;;;2.77;1.93;;;6.90;99.90;;;8.33;69.21;95110.78;5026235;28;20053;-66
2024/02/11 04:38:13;;;;;;;2.23;1.30;;;6.90;99.90;;;8.30;68.87;95122.63;5032738;28;20053;-65
2024/02/11 04:40:42;;;;;;;4.07;1.37;;;7.00;99.90;;;8.39;68.84;95120.53;5032255;28;20049;-65
2024/02/11 04:43:10;;;;;;;2.40;1.40;;;7.00;99.90;;;8.47;68.94;95126.47;5031195;28;20524;-66
2024/02/11 04:45:38;;;;;;;1.30;0.90;;;7.00;99.90;;;8.50;68.69;95133.19;5031431;28;20056;-65
2024/02/11 04:48:09;;;;;;;1.63;1.30;;;7.00;99.90;;;8.61;68.50;95123.75;5032104;28;20045;-65
2024/02/11 04:50:37;;;;;;;2.27;1.20;;;7.10;99.90;;;8.68;68.22;95137.78;5032045;28;20045;-65
2024/02/11 04:53:08;;;;;;;1.47;1.33;;;7.20;99.90;;;8.61;68.48;95137.03;5031150;28;20048;-65
2024/02/11 04:55:39;;;;;;;1.37;1.10;;;7.10;99.90;;;8.67;68.42;95138.84;5031694;28;20050;-64
2024/02/11 04:58:19;;;;;;;1.20;1.00;;;7.10;99.90;;;8.76;68.27;95140.22;5032142;28;20041;-65
2024/02/11 05:00:50;;;;;;;2.03;1.30;;;7.20;99.90;;;8.74;68.15;95138.78;5031945;28;20402;-64
2024/02/11 05:03:19;;;;;;;1.20;0.83;;;7.20;99.90;;;8.73;68.05;95140.63;5014601;28;20048;-64
2024/02/11 05:05:50;;;;;;;1.30;0.90;;;7.10;99.90;;;8.82;68.09;95142.03;5029710;28;20052;-64
2024/02/11 05:08:22;;;;;;;1.00;0.90;;;7.20;99.90;;;8.85;67.98;95138.94;5031662;28;20033;-65
2024/02/11 05:10:52;;;;;;;1.50;1.10;;;7.20;99.90;;;8.88;67.77;95143.03;5030515;28;20401;-65
2024/02/11 05:13:23;;;;;;;1.20;0.83;;;7.20;99.90;;;8.92;67.81;95146.06;5031938;28;20033;-65
2024/02/11 05:15:53;;;;;;;1.33;0.90;;;7.20;99.90;;;8.98;67.64;95153.19;5029959;28;20049;-65
2024/02/11 05:18:20;;;;;;;2.40;1.00;;;7.30;99.90;;;8.96;67.40;95156.03;5031443;28;20041;-65
2024/02/11 05:20:48;;;;;;;1.70;1.57;;;7.30;99.90;;;8.96;67.63;95149.94;5031356;28;20049;-65
2024/02/11 05:23:16;;;;;;;1.47;0.90;;;7.30;99.90;;;8.96;67.05;95157.91;5031606;28;20052;-65
2024/02/11 05:25:45;;;;;;;1.50;0.83;;;7.30;99.90;;;8.94;67.26;95152.78;5029807;28;20048;-65
2024/02/11 05:28:15;;;;;;;1.47;1.00;;;7.20;99.90;;;8.94;66.80;95159.94;5030311;28;20045;-65
2024/02/11 05:30:46;;;;;;;1.43;1.23;;;7.20;99.90;;;8.91;67.10;95160.34;5030205;28;20052;-65
2024/02/11 05:33:19;;;;;;;1.45;1.08;;;7.20;99.90;;;8.89;66.64;95165.88;5014600;28;20037;-65
2024/02/11 05:35:48;;;;;;;1.90;1.20;;;7.20;99.90;;;8.91;66.83;95173.63;5029749;28;20507;-65
2024/02/11 05:38:25;;;;;;;2.20;1.30;;;7.20;99.90;;;8.90;66.53;95169.31;5030177;28;20048;-65
2024/02/11 05:40:56;;;;;;;2.20;1.47;;;7.20;99.90;;;8.88;66.73;95166.91;5030456;28;20037;-65
2024/02/11 05:43:26;;;;;;;4.03;1.77;;;7.20;99.90;;;8.90;66.52;95162.22;5031233;28;20420;-65
2024/02/11 05:45:54;;;;;;;2.37;1.50;;;7.20;99.90;;;8.86;66.50;95174.28;5030458;28;20413;-65
2024/02/11 05:48:23;;;;;;;1.87;1.43;;;7.20;99.90;;;8.89;66.72;95178.34;5031161;28;20409;-65
2024/02/11 05:50:52;;;;;;;3.20;1.67;;;7.20;99.90;;;8.87;66.39;95176.69;5030331;28;20393;-65
2024/02/11 05:53:19;;;;;;;2.03;1.63;;;7.20;99.90;;;8.89;66.55;95183.63;5031760;28;20041;-65
2024/02/11 05:55:52;;;;;;;2.27;1.37;;;7.20;99.90;;;8.89;66.56;95186.28;5030374;28;20037;-65
2024/02/11 05:58:21;;;;;;;2.65;1.50;;;7.20;99.90;;;8.83;66.52;95187.94;5030834;28;20046;-65
2024/02/11 06:00:48;;;;;;;4.17;1.30;;;7.10;99.90;;;8.83;66.13;95182.63;5012867;28;20045;-66
2024/02/11 06:03:20;;;;;;;3.33;1.50;;;7.10;99.90;;;8.85;66.29;95199.16;5013185;28;20088;-66
2024/02/11 06:06:13;;;;;;;1.80;1.30;;;7.10;99.90;;;8.85;66.30;95193.84;5024125;28;20064;-66
2024/02/11 06:08:40;;;;;;;1.53;1.10;;;7.10;99.90;;;8.85;66.02;95199.97;5030946;28;20049;-66
2024/02/11 06:11:11;;;;;;;2.37;1.37;;;7.10;99.90;;;8.86;66.24;95203.47;5030881;28;20042;-67
2024/02/11 06:13:39;;;;;;;1.20;0.87;;;7.10;99.90;;;8.89;66.50;95213.63;5030320;28;20045;-67
2024/02/11 06:16:07;;;;;;;1.80;1.03;;;7.10;99.90;;;8.89;66.26;95216.28;5029295;28;20385;-66
2024/02/11 06:18:35;;;;;;;4.03;1.20;;;7.10;99.90;;;8.87;66.08;95219.13;5030652;28;20042;-66
2024/02/11 06:21:05;;;;;;;1.53;0.90;;;7.10;99.90;;;8.89;66.24;95216.28;5029995;28;20044;-66
2024/02/11 06:23:34;;;;;;;2.30;1.60;;;7.10;99.90;;;8.87;66.30;95219.13;5030654;28;20052;-67
2024/02/11 06:26:04;;;;;;;2.47;1.20;;;7.10;99.90;;;8.89;66.46;95224.25;5022754;28;20045;-67
2024/02/11 06:28:32;;;;;;;1.83;1.03;;;7.10;99.90;;;8.88;66.44;95233.25;5029645;28;20037;-66
2024/02/11 06:31:01;;;;;;;1.57;1.10;;;7.10;99.90;;;8.90;66.19;95233.00;5030767;28;20046;-67
2024/02/11 06:33:28;;;;;;;1.37;0.97;;;7.10;99.90;;;8.86;66.39;95235.28;5029549;28;20049;-67
2024/02/11 06:35:56;;;;;;;1.93;1.07;;;7.00;99.90;;;8.87;66.19;95234.25;5029741;28;20050;-66
2024/02/11 06:38:24;;;;;;;1.20;0.90;;;7.00;99.90;;;8.84;66.55;95239.97;5029452;28;20045;-66
2024/02/11 06:40:52;;;;;;;3.07;1.10;;;6.90;99.90;;;8.82;66.22;95245.50;5030176;28;20056;-66
2024/02/11 06:43:21;;;;;;;0.70;0.70;;;6.90;99.90;;;8.84;66.30;95240.81;5030574;28;20049;-66
2024/02/11 06:45:48;;;;;;;1.50;1.20;;;7.00;99.90;;;8.83;66.14;95244.47;5028679;28;20057;-66
2024/02/11 06:48:17;;;;;;;1.73;1.13;;;7.00;99.90;;;8.86;66.71;95244.06;5029498;28;20638;-66
2024/02/11 06:50:45;;;;;;;1.40;1.07;;;7.00;99.90;;;8.87;66.51;95250.16;5030423;28;20050;-66
2024/02/11 06:53:13;;;;;;;0.80;0.80;;;7.10;99.90;;;8.88;66.54;95251.81;5028832;28;20048;-66
2024/02/11 06:55:41;;;;;;;1.43;0.90;;;7.10;99.90;;;8.88;66.33;95257.13;5029970;28;20041;-66
2024/02/11 06:58:09;;;;;;;1.70;1.03;;;7.10;99.90;;;8.88;66.24;95259.78;5030634;28;20428;-66
2024/02/11 07:00:37;;;;;;;1.43;1.10;;;7.10;99.90;;;8.86;65.82;95259.97;5030469;28;20045;-66
2024/02/11 07:03:05;;;;;;;1.93;1.10;;;7.00;99.90;;;8.85;65.72;95266.28;5022370;28;20052;-66
2024/02/11 07:05:33;;;;;;;1.37;0.90;;;7.00;99.90;;;8.84;66.25;95270.00;5030218;28;20065;-65
2024/02/11 07:08:02;;;;;;;1.47;1.10;;;7.10;99.90;;;8.86;66.02;95272.44;5028978;28;20049;-65
2024/02/11 07:10:29;;;;;;;1.47;0.87;;;7.10;99.90;;;8.87;66.01;95264.25;5033712;28;20049;-65
2024/02/11 07:12:57;;;;;;;1.73;1.10;;;7.10;99.90;;;8.86;65.62;95267.13;5033909;28;20417;-64
2024/02/11 07:15:25;;;;;;;3.90;1.47;;;7.10;99.90;;;8.86;65.82;95281.22;5033101;28;20041;-65
2024/02/11 07:17:53;;;;;;;2.53;1.10;;;7.10;99.90;;;8.85;65.98;95282.22;5032733;28;20057;-64
2024/02/11 07:20:22;;;;;;;2.20;1.00;;;7.10;99.90;;;8.89;65.76;95287.94;5034346;28;20056;-65
2024/02/11 07:22:50;;;;;;;2.07;1.10;;;7.10;99.90;;;8.91;65.88;95293.03;5033689;28;20045;-65
2024/02/11 07:25:18;;;;;;;1.83;1.20;;;7.10;99.90;;;8.91;66.09;95303.66;5032284;28;20421;-64
2024/02/11 07:27:46;;;;;;;1.97;1.40;;;7.10;99.90;;;8.90;65.71;95307.31;5034003;28;20042;-65
2024/02/11 07:30:14;;;;;;;1.67;1.13;;;7.10;99.90;;;8.92;65.70;95314.06;5032441;28;20042;-64
2024/02/11 07:32:44;;;;;;;2.83;1.40;;;7.10;99.90;;;8.90;65.72;95320.56;5029680;28;20501;-64
2024/02/11 07:35:15;;;;;;;2.00;1.67;;;7.00;99.90;;;8.90;65.45;95317.91;5030776;28;20041;-64
2024/02/11 07:37:44;;;;;;;2.20;1.30;;;7.10;99.90;;;8.91;65.56;95312.41;5031812;28;20060;-64
2024/02/11 07:40:14;;;;;;;2.70;2.00;;;7.10;99.90;;;8.95;65.50;95316.28;5032654;28;20552;-64
2024/02/11 07:42:44;;;;;;;2.20;1.50;;;7.20;99.90;;;8.94;65.44;95316.50;5032154;28;20060;-64
2024/02/11 07:45:14;;;;;;;2.17;1.43;;;7.20;99.90;;;8.96;65.72;95320.56;5030427;28;20783;-64
2024/02/11 07:47:47;;;;;;;3.27;1.60;;;7.20;99.90;;;8.96;65.66;95320.56;5012611;28;20045;-65
2024/02/11 07:50:17;;;;;;;2.30;1.50;;;7.20;99.90;;;8.97;65.57;95324.84;5014752;28;20243;-65
2024/02/11 07:52:46;;;;;;;2.57;1.50;;;7.20;99.90;;;8.98;65.33;95326.50;5031968;28;20049;-65
2024/02/11 07:55:15;;;;;;;2.63;1.60;;;7.20;99.90;;;9.01;65.08;95330.56;5030864;28;20049;-65
2024/02/11 07:57:42;;;;;;;1.90;1.33;;;7.20;99.90;;;9.01;65.13;95328.72;5032115;28;20053;-64
2024/02/11 08:00:12;;;;;;;2.30;1.67;;;7.20;99.90;;;9.02;65.27;95326.91;5031352;28;20046;-65
2024/02/11 08:02:39;;;;;;;2.80;1.87;;;7.20;99.90;;;9.04;65.73;95324.84;5030898;28;20060;-65
2024/02/11 08:05:10;;;;;;;3.20;1.87;;;7.30;99.90;;;9.02;65.01;95327.69;5030558;28;20052;-65
2024/02/11 08:07:39;;;;;;;3.33;2.07;;;7.20;99.90;;;9.03;65.02;95332.00;5031777;28;20056;-65
2024/02/11 08:10:07;;;;;;;3.07;1.70;;;7.20;99.90;;;9.07;65.34;95338.53;5031569;28;20065;-65
2024/02/11 08:12:35;;;;;;;8.27;2.67;;;7.30;99.90;;;9.09;65.45;95342.78;5031389;28;20041;-65
2024/02/11 08:15:04;;;;;;;3.33;1.80;;;7.30;99.90;;;9.11;65.22;95346.06;5031326;28;20052;-65
2024/02/11 08:17:32;;;;;;;2.57;1.93;;;7.30;99.90;;;9.12;64.89;95353.00;5030247;28;20646;-65
2024/02/11 08:19:59;;;;;;;5.33;3.27;;;7.30;99.90;;;9.13;64.86;95341.34;5013525;28;20053;-65
2024/02/11 08:22:27;;;;;;;4.50;2.23;;;7.30;99.90;;;9.12;64.95;95345.84;5031840;28;20057;-65
2024/02/11 08:24:55;;;;;;;3.40;2.20;;;7.30;99.90;;;9.12;64.86;95350.34;5029348;28;20053;-65
2024/02/11 08:27:23;;;;;;;3.53;2.30;;;7.30;99.90;;;9.15;65.26;95355.22;5031432;28;20515;-65
2024/02/11 08:29:52;;;;;;;4.30;2.33;;;7.40;99.90;;;9.15;65.15;95358.72;5031601;28;20050;-65
2024/02/11 08:32:20;;;;;;;5.07;2.73;;;7.40;99.90;;;9.18;65.00;95360.94;5030484;28;20041;-66
2024/02/11 08:34:48;;;;;;;4.53;2.83;;;7.40;99.90;;;9.22;65.36;95361.34;5029885;28;20519;-66
2024/02/11 08:37:15;;;;;;;4.97;2.07;;;7.50;99.90;;;9.24;64.74;95365.41;5031366;28;20042;-66
2024/02/11 08:39:43;;;;;;;3.00;2.20;;;7.50;99.60;;;9.30;64.82;95365.63;5031090;28;20096;-66
2024/02/11 08:42:11;;;;;;;3.87;2.30;;;7.60;99.90;;;9.34;65.08;95364.97;5030187;28;20041;-66
2024/02/11 08:44:39;;;;;;;3.17;1.83;;;7.70;99.90;;;9.42;65.05;95366.59;5031131;28;20045;-66
2024/02/11 08:47:09;;;;;;;3.33;2.10;;;7.70;99.80;;;9.46;64.74;95373.13;5029360;28;20241;-66
2024/02/11 08:49:37;;;;;;;5.00;2.67;;;7.80;99.80;;;9.45;65.03;95368.84;5027103;28;20064;-65
2024/02/11 08:52:05;;;;;;;5.37;2.60;;;7.80;98.30;;;9.46;64.52;95381.09;5032241;28;20037;-66
2024/02/11 08:54:34;;;;;;;4.33;2.50;;;7.80;98.30;;;9.50;64.53;95378.81;5031960;28;20037;-66
2024/02/11 08:57:02;;;;;;;3.80;2.33;;;7.80;99.90;;;9.56;64.71;95386.78;5029908;28;20049;-67
2024/02/11 08:59:30;;;;;;;5.30;2.77;;;7.90;99.90;;;9.63;64.78;95386.75;5030530;28;20049;-66
2024/02/11 09:01:59;;;;;;;5.60;2.90;;;7.90;99.70;;;9.66;64.80;95391.66;5030536;28;20501;-66
2024/02/11 09:04:28;;;;;;;4.27;2.40;;;8.00;99.60;;;9.71;64.84;95393.66;5030837;28;20053;-66
2024/02/11 09:06:57;;;;;;;4.37;2.30;;;8.00;99.10;;;9.72;64.52;95387.34;5031165;28;20057;-65
2024/02/11 09:09:29;;;;;;;5.13;2.80;;;8.00;98.80;;;9.71;64.48;95383.03;5030758;28;20156;-64
2024/02/11 09:11:57;;;;;;;4.97;2.53;;;8.00;97.90;;;9.74;64.20;95394.06;5032238;28;20041;-64
2024/02/11 09:14:27;;;;;;;7.23;2.80;;;8.00;99.50;;;9.78;64.20;95389.94;5031873;28;20041;-64
2024/02/11 09:16:57;;;;;;;5.50;2.40;;;8.10;98.70;;;9.80;64.37;95398.53;5029779;28;20069;-64
2024/02/11 09:19:26;;;;;;;5.57;2.30;;;8.10;98.10;;;9.81;64.26;95397.50;5030507;28;20048;-64
2024/02/11 09:21:55;;;;;;;4.10;2.50;;;8.10;98.20;;;9.83;64.24;95405.28;5030180;28;20516;-64
2024/02/11 09:24:24;;;;;;;4.33;2.50;;;8.10;98.60;;;9.81;64.01;95400.16;5031396;28;20038;-64
2024/02/11 09:26:52;;;;;;;7.13;3.63;;;8.10;96.90;;;9.81;64.19;95407.34;5030654;28;20049;-64
2024/02/11 09:29:22;;;;;;;5.53;2.33;;;8.10;98.10;;;9.85;64.37;95406.69;5023278;28;20044;-64
2024/02/11 09:31:50;;;;;;;6.03;3.50;;;8.20;98.60;;;9.83;64.48;95411.41;5030076;28;20037;-63
2024/02/11 09:34:21;;;;;;;4.70;3.13;;;8.10;98.40;;;9.88;64.28;95412.59;5023319;28;20045;-64
2024/02/11 09:36:49;;;;;;;3.97;2.47;;;8.20;98.60;;;9.91;64.57;95413.00;5030548;28;20053;-64
2024/02/11 09:39:17;;;;;;;6.23;3.07;;;8.20;98.40;;;9.95;64.00;95410.75;5031140;28;20499;-63
2024/02/11 09:41:45;;;;;;;5.53;2.53;;;8.20;98.80;;;9.99;64.28;95415.41;5031297;28;20505;-63
2024/02/11 09:44:17;;;;;;;4.87;3.03;;;8.40;99.10;;;10.05;64.45;95417.22;5030948;28;20041;-64
2024/02/11 09:46:51;;;;;;;5.83;3.37;;;8.40;98.30;;;10.12;64.52;95411.88;5029614;28;20058;-64
2024/02/11 09:49:20;;;;;;;4.20;2.53;;;8.50;98.50;;;10.17;63.93;95419.22;5029795;28;20390;-62
2024/02/11 09:51:49;;;;;;;6.07;3.30;;;8.50;97.40;;;10.21;64.18;95423.06;5029028;28;20593;-62
2024/02/11 09:54:18;;;;;;;5.50;3.27;;;8.60;97.50;;;10.23;63.90;95429.81;5030397;28;20053;-62
2024/02/11 09:56:46;;;;;;;3.97;2.80;;;8.60;97.20;;;10.20;63.98;95427.59;5029381;28;20048;-62
2024/02/11 09:59:13;;;;;;;4.70;2.80;;;8.60;95.70;;;10.27;64.05;95421.41;5029601;28;20048;-62
2024/02/11 10:01:42;;;;;;;7.13;2.57;;;8.70;96.20;;;10.31;63.93;95428.78;5030780;28;20053;-62
2024/02/11 10:04:11;;;;;;;4.13;2.70;;;8.70;95.80;;;10.34;63.35;95431.00;5029384;28;20050;-62
2024/02/11 10:06:41;;;;;;;4.33;2.07;;;8.70;95.40;;;10.37;63.65;95435.06;5030455;28;20575;-62
2024/02/11 10:09:12;;;;;;;4.47;2.57;;;8.70;95.10;;;10.38;63.35;95434.06;5021804;28;20042;-62
2024/02/11 10:11:40;;;;;;;4.30;2.70;;;8.70;95.50;;;10.39;63.03;95433.03;5031038;28;20049;-62
2024/02/11 10:14:13;;;;;;;4.43;2.77;;;8.70;95.00;;;10.40;63.13;95442.66;5030616;28;20048;-62
2024/02/11 10:16:41;;;;;;;6.37;2.83;;;8.70;94.50;;;10.43;63.41;95444.88;5030206;28;20046;-62
2024/02/11 10:19:09;;;;;;;6.83;2.90;;;8.80;95.20;;;10.44;63.09;95443.84;5030868;28;20076;-62
2024/02/11 10:21:37;;;;;;;5.77;3.80;;;8.80;94.20;;;10.43;62.96;95450.22;5030940;28;20045;-62
2024/02/11 10:24:05;;;;;;;4.97;2.80;;;8.80;94.50;;;10.42;63.18;95454.69;5029244;28;20053;-62
2024/02/11 10:26:35;;;;;;;3.67;2.50;;;8.80;94.80;;;10.48;62.93;95460.19;5030222;28;20350;-62
2024/02/11 10:29:03;;;;;;;5.03;2.60;;;8.80;94.60;;;10.50;63.05;95463.47;5030351;28;20359;-62
2024/02/11 10:31:30;;;;;;;3.80;2.80;;;8.80;93.90;;;10.47;62.66;95461.22;5030887;28;20045;-62
2024/02/11 10:33:58;;;;;;;5.13;3.10;;;8.80;94.10;;;10.48;62.85;95468.19;5030612;28;20540;-62
2024/02/11 10:36:27;;;;;;;5.10;2.70;;;8.80;94.50;;;10.51;63.10;95473.88;5030358;28;20515;-62